createdAt,value
2023-06-27T00:02:16.608Z,17.80
2023-06-27T00:04:43.472Z,17.80
2023-06-27T00:07:11.673Z,17.80
2023-06-27T00:09:39.732Z,17.80
2023-06-27T00:12:08.472Z,17.80
2023-06-27T00:14:38.331Z,17.70
2023-06-27T00:17:08.418Z,17.70
2023-06-27T00:19:35.146Z,17.60
2023-06-27T00:22:02.038Z,17.20
2023-06-27T00:24:28.751Z,17.40
2023-06-27T00:26:55.514Z,17.30
2023-06-27T00:29:22.369Z,17.90
2023-06-27T00:31:49.115Z,17.10
2023-06-27T00:34:15.868Z,17.10
2023-06-27T00:36:42.630Z,17.00
2023-06-27T00:39:09.355Z,17.00
2023-06-27T00:41:36.158Z,17.00
2023-06-27T00:44:07.238Z,16.90
2023-06-27T00:46:41.638Z,16.80
2023-06-27T00:49:10.356Z,16.80
2023-06-27T00:51:39.181Z,16.90
2023-06-27T00:54:06.058Z,16.90
2023-06-27T00:56:32.830Z,16.80
2023-06-27T00:59:02.390Z,16.70
2023-06-27T01:01:30.475Z,16.70
2023-06-27T01:03:57.447Z,16.80
2023-06-27T01:06:44.054Z,16.80
2023-06-27T01:09:17.229Z,16.90
2023-06-27T01:11:49.613Z,16.90
2023-06-27T01:14:19.262Z,17.00
2023-06-27T01:16:47.824Z,17.20
2023-06-27T01:19:18.008Z,17.00
2023-06-27T01:21:47.795Z,17.10
2023-06-27T01:24:14.725Z,17.30
2023-06-27T01:26:41.652Z,17.20
2023-06-27T01:29:08.393Z,17.20
2023-06-27T01:31:48.530Z,17.50
2023-06-27T01:34:47.573Z,16.70
2023-06-27T01:37:30.238Z,17.10
2023-06-27T01:40:11.837Z,17.10
2023-06-27T01:42:47.699Z,17.10
2023-06-27T01:45:18.028Z,17.20
2023-06-27T01:47:45.850Z,17.20
2023-06-27T01:50:13.946Z,17.10
2023-06-27T01:52:41.287Z,17.20
2023-06-27T01:55:09.173Z,17.20
2023-06-27T01:57:36.158Z,17.20
2023-06-27T02:00:03.697Z,17.20
2023-06-27T02:02:30.510Z,17.20
2023-06-27T02:04:57.310Z,17.40
2023-06-27T02:07:24.056Z,17.10
2023-06-27T02:09:50.788Z,17.00
2023-06-27T02:12:17.599Z,16.90
2023-06-27T02:14:44.356Z,16.90
2023-06-27T02:17:11.677Z,17.00
2023-06-27T02:19:38.527Z,16.90
2023-06-27T02:22:05.496Z,16.80
2023-06-27T02:24:32.172Z,16.90
2023-06-27T02:26:58.950Z,17.20
2023-06-27T02:29:25.678Z,16.80
2023-06-27T02:31:52.387Z,17.00
2023-06-27T02:34:19.156Z,17.00
2023-06-27T02:36:45.925Z,17.00
2023-06-27T02:39:12.653Z,17.10
2023-06-27T02:41:39.460Z,17.10
2023-06-27T02:44:06.344Z,17.00
2023-06-27T02:46:33.124Z,16.90
2023-06-27T02:49:00.246Z,16.90
2023-06-27T02:51:27.031Z,16.80
2023-06-27T02:53:53.784Z,17.20
2023-06-27T02:56:20.504Z,17.10
2023-06-27T02:58:47.243Z,16.80
2023-06-27T03:01:14.803Z,16.80
2023-06-27T03:03:43.378Z,16.80
2023-06-27T03:06:10.709Z,16.70
2023-06-27T03:08:40.738Z,16.70
2023-06-27T03:11:07.488Z,16.70
2023-06-27T03:13:34.341Z,16.60
2023-06-27T03:16:02.087Z,16.70
2023-06-27T03:18:29.113Z,16.70
2023-06-27T03:20:55.935Z,16.60
2023-06-27T03:23:22.691Z,16.80
2023-06-27T03:25:49.469Z,16.60
2023-06-27T03:28:16.302Z,16.60
2023-06-27T03:30:44.720Z,16.50
2023-06-27T03:33:12.265Z,16.60
2023-06-27T03:35:39.417Z,16.70
2023-06-27T03:38:06.485Z,16.50
2023-06-27T03:40:33.396Z,16.50
2023-06-27T03:43:00.124Z,16.20
2023-06-27T03:45:26.859Z,16.40
2023-06-27T03:47:53.710Z,16.40
2023-06-27T03:50:20.607Z,16.50
2023-06-27T03:52:47.358Z,16.50
2023-06-27T03:55:14.118Z,16.80
2023-06-27T03:57:40.840Z,16.40
2023-06-27T04:00:08.646Z,16.50
2023-06-27T04:02:35.401Z,16.50
2023-06-27T04:05:02.263Z,16.40
2023-06-27T04:07:29.479Z,16.70
2023-06-27T04:09:56.347Z,17.10
2023-06-27T04:12:23.052Z,16.50
2023-06-27T04:14:49.815Z,17.10
2023-06-27T04:17:16.647Z,16.40
2023-06-27T04:19:43.463Z,16.50
2023-06-27T04:22:10.268Z,16.30
2023-06-27T04:24:37.007Z,16.40
2023-06-27T04:27:03.908Z,16.30
2023-06-27T04:29:30.631Z,16.20
2023-06-27T04:31:57.348Z,16.30
2023-06-27T04:34:24.038Z,16.20
2023-06-27T04:36:52.227Z,17.10
2023-06-27T04:39:19.066Z,16.60
2023-06-27T04:41:45.756Z,16.30
2023-06-27T04:44:13.109Z,16.30
2023-06-27T04:46:40.622Z,16.30
2023-06-27T04:49:07.881Z,16.40
2023-06-27T04:51:34.683Z,16.50
2023-06-27T04:54:01.400Z,16.90
2023-06-27T04:56:28.799Z,16.20
2023-06-27T04:58:55.646Z,16.50
2023-06-27T05:01:22.461Z,16.50
2023-06-27T05:03:49.285Z,16.50
2023-06-27T05:06:16.063Z,16.60
2023-06-27T05:08:42.830Z,16.40
2023-06-27T05:11:09.547Z,16.50
2023-06-27T05:13:36.303Z,16.70
2023-06-27T05:16:03.093Z,16.80
2023-06-27T05:18:29.869Z,16.30
2023-06-27T05:20:56.671Z,16.40
2023-06-27T05:23:23.535Z,16.40
2023-06-27T05:25:51.232Z,16.50
2023-06-27T05:28:18.268Z,16.50
2023-06-27T05:30:45.231Z,16.50
2023-06-27T05:33:11.991Z,16.70
2023-06-27T05:35:38.953Z,16.60
2023-06-27T05:38:06.769Z,16.40
2023-06-27T05:40:33.578Z,16.80
2023-06-27T05:43:00.418Z,16.80
2023-06-27T05:45:27.153Z,16.90
2023-06-27T05:47:53.912Z,16.80
2023-06-27T05:50:20.682Z,17.40
2023-06-27T05:52:47.506Z,17.00
2023-06-27T05:55:14.240Z,16.80
2023-06-27T05:57:40.974Z,16.90
2023-06-27T06:00:11.932Z,16.90
2023-06-27T06:02:41.067Z,16.70
2023-06-27T06:05:08.630Z,16.70
2023-06-27T06:07:35.549Z,16.80
2023-06-27T06:10:03.380Z,16.90
2023-06-27T06:12:30.246Z,17.10
2023-06-27T06:14:56.975Z,17.00
2023-06-27T06:17:23.778Z,17.10
2023-06-27T06:19:50.595Z,17.20
2023-06-27T06:22:17.445Z,17.20
2023-06-27T06:24:44.256Z,17.20
2023-06-27T06:27:10.961Z,17.10
2023-06-27T06:29:37.840Z,17.20
2023-06-27T06:32:06.044Z,17.10
2023-06-27T06:34:32.824Z,17.20
2023-06-27T06:36:59.722Z,17.20
2023-06-27T06:39:26.463Z,17.30
2023-06-27T06:41:53.263Z,17.80
2023-06-27T06:44:19.981Z,17.30
2023-06-27T06:46:46.757Z,17.30
2023-06-27T06:49:13.596Z,17.70
2023-06-27T06:51:40.503Z,17.50
2023-06-27T06:54:07.201Z,17.50
2023-06-27T06:56:33.908Z,17.50
2023-06-27T06:59:00.916Z,17.70
2023-06-27T07:01:29.635Z,17.80
2023-06-27T07:03:56.565Z,17.80
2023-06-27T07:06:23.287Z,17.80
2023-06-27T07:08:50.069Z,17.90
2023-06-27T07:11:16.798Z,17.90
2023-06-27T07:13:43.615Z,17.90
2023-06-27T07:16:10.396Z,17.70
2023-06-27T07:18:37.091Z,18.00
2023-06-27T07:21:03.930Z,18.00
2023-06-27T07:23:30.699Z,18.10
2023-06-27T07:25:57.478Z,18.10
2023-06-27T07:28:24.208Z,18.20
2023-06-27T07:30:51.089Z,18.40
2023-06-27T07:36:04.681Z,18.30
2023-06-27T07:38:32.269Z,18.40
2023-06-27T07:40:59.187Z,18.40
2023-06-27T07:43:25.923Z,18.50
2023-06-27T07:45:52.652Z,18.60
2023-06-27T07:48:19.402Z,18.80
2023-06-27T07:50:46.127Z,18.80
2023-06-27T07:53:12.841Z,18.70
2023-06-27T07:55:39.703Z,18.60
2023-06-27T07:58:06.454Z,18.70
2023-06-27T08:00:33.325Z,18.90
2023-06-27T08:03:00.185Z,19.00
2023-06-27T08:05:29.387Z,19.10
2023-06-27T08:07:56.158Z,19.10
2023-06-27T08:10:23.011Z,19.40
2023-06-27T08:12:49.822Z,19.20
2023-06-27T08:15:16.731Z,19.10
2023-06-27T08:18:20.389Z,19.10
2023-06-27T08:20:47.146Z,19.40
2023-06-27T08:23:14.552Z,19.50
2023-06-27T08:25:41.619Z,19.60
2023-06-27T08:28:08.507Z,19.70
2023-06-27T08:30:35.934Z,19.80
2023-06-27T08:33:02.757Z,19.90
2023-06-27T08:35:30.419Z,19.90
2023-06-27T08:37:57.254Z,19.90
2023-06-27T08:40:27.130Z,20.20
2023-06-27T08:42:53.924Z,20.00
2023-06-27T08:45:20.699Z,20.10
2023-06-27T08:47:49.771Z,20.10
2023-06-27T08:50:18.903Z,20.10
2023-06-27T08:52:52.642Z,20.20
2023-06-27T08:55:49.912Z,20.20
2023-06-27T08:58:17.458Z,20.10
2023-06-27T09:00:45.657Z,19.90
2023-06-27T09:03:13.488Z,19.90
2023-06-27T09:05:41.318Z,19.90
2023-06-27T09:08:08.661Z,19.90
2023-06-27T09:10:35.580Z,20.00
2023-06-27T09:13:02.445Z,20.10
2023-06-27T09:15:29.780Z,20.30
2023-06-27T09:17:56.586Z,20.50
2023-06-27T09:20:24.811Z,20.60
2023-06-27T09:22:52.026Z,20.50
2023-06-27T09:25:21.100Z,20.50
2023-06-27T09:27:49.947Z,20.40
2023-06-27T09:30:18.161Z,20.40
2023-06-27T09:32:57.690Z,19.20
2023-06-27T09:40:38.941Z,20.80
2023-06-27T09:43:07.567Z,20.80
2023-06-27T09:45:34.556Z,20.70
2023-06-27T09:48:01.444Z,20.70
2023-06-27T09:50:30.117Z,20.50
2023-06-27T09:53:02.402Z,20.50
2023-06-27T09:55:29.637Z,20.60
2023-06-27T09:57:57.883Z,20.70
2023-06-27T10:00:27.278Z,20.70
2023-06-27T10:02:54.274Z,20.80
2023-06-27T10:05:22.871Z,20.90
2023-06-27T10:07:51.548Z,20.90
2023-06-27T10:10:20.502Z,20.80
2023-06-27T10:12:48.358Z,20.70
2023-06-27T10:15:16.280Z,20.70
2023-06-27T10:17:43.277Z,20.70
2023-06-27T10:20:13.013Z,20.70
2023-06-27T10:22:43.831Z,20.80
2023-06-27T10:25:12.789Z,20.90
2023-06-27T10:27:44.129Z,20.90
2023-06-27T10:30:27.055Z,20.90
2023-06-27T10:33:32.975Z,20.90
2023-06-27T10:36:06.558Z,21.00
2023-06-27T10:38:38.018Z,21.00
2023-06-27T10:41:08.046Z,21.00
2023-06-27T10:43:38.005Z,20.90
2023-06-27T10:46:09.388Z,21.00
2023-06-27T10:48:54.567Z,21.10
2023-06-27T10:51:23.232Z,21.20
2023-06-27T10:54:08.654Z,21.30
2023-06-27T10:56:37.308Z,21.30
2023-06-27T10:59:11.439Z,21.50
2023-06-27T11:02:02.115Z,21.60
2023-06-27T11:04:45.950Z,21.30
2023-06-27T11:07:18.980Z,21.30
2023-06-27T11:09:56.847Z,21.20
2023-06-27T11:12:39.068Z,21.30
2023-06-27T11:15:06.811Z,21.40
2023-06-27T11:17:36.917Z,21.50
2023-06-27T11:20:04.123Z,21.70
2023-06-27T11:22:31.073Z,21.70
2023-06-27T11:24:59.661Z,21.70
2023-06-27T11:27:32.646Z,21.80
2023-06-27T11:29:59.381Z,21.80
2023-06-27T11:32:27.062Z,21.90
2023-06-27T11:34:53.938Z,21.90
2023-06-27T11:37:21.808Z,21.80
2023-06-27T11:39:55.271Z,21.80
2023-06-27T11:42:37.225Z,21.70
2023-06-27T11:45:04.910Z,21.60
2023-06-27T11:47:32.052Z,21.70
2023-06-27T11:50:19.005Z,22.00
2023-06-27T11:52:48.461Z,21.90
2023-06-27T11:55:15.193Z,21.80
2023-06-27T11:57:49.692Z,22.10
2023-06-27T12:00:20.678Z,22.10
2023-06-27T12:02:50.381Z,21.90
2023-06-27T12:05:18.855Z,21.90
2023-06-27T12:08:08.796Z,21.80
2023-06-27T12:10:50.405Z,21.90
2023-06-27T12:13:17.190Z,21.90
2023-06-27T12:15:47.732Z,21.90
2023-06-27T12:18:25.380Z,22.10
2023-06-27T12:20:53.229Z,22.20
2023-06-27T12:23:20.803Z,22.10
2023-06-27T12:25:48.241Z,22.10
2023-06-27T12:28:15.202Z,22.10
2023-06-27T12:30:42.489Z,22.20
2023-06-27T12:33:10.151Z,22.30
2023-06-27T12:35:37.104Z,22.50
2023-06-27T12:38:03.920Z,22.60
2023-06-27T12:40:30.735Z,22.80
2023-06-27T12:42:58.904Z,23.00
2023-06-27T12:45:25.662Z,22.90
2023-06-27T12:47:52.475Z,23.00
2023-06-27T12:50:20.149Z,23.00
2023-06-27T12:52:50.361Z,22.90
2023-06-27T12:55:21.227Z,23.00
2023-06-27T12:57:49.812Z,23.10
2023-06-27T13:00:24.125Z,23.30
2023-06-27T13:02:57.804Z,23.50
2023-06-27T13:05:35.341Z,23.50
2023-06-27T13:08:02.130Z,23.50
2023-06-27T13:10:29.144Z,23.60
2023-06-27T13:12:56.060Z,23.80
2023-06-27T13:15:25.498Z,24.10
2023-06-27T13:17:54.769Z,23.80
2023-06-27T13:20:22.909Z,23.60
2023-06-27T13:22:49.757Z,23.60
2023-06-27T13:25:17.025Z,23.70
2023-06-27T13:27:44.378Z,23.80
2023-06-27T13:30:11.361Z,24.20
2023-06-27T13:32:38.106Z,24.60
2023-06-27T13:35:05.205Z,25.10
2023-06-27T13:37:31.967Z,25.20
2023-06-27T13:39:58.718Z,25.30
2023-06-27T13:42:25.493Z,25.60
2023-06-27T13:44:52.230Z,25.90
2023-06-27T13:47:18.971Z,25.90
2023-06-27T13:49:45.739Z,26.10
2023-06-27T13:52:12.469Z,26.30
2023-06-27T13:54:39.232Z,26.40
2023-06-27T13:57:05.937Z,26.70
2023-06-27T13:59:33.148Z,27.00
2023-06-27T14:02:00.210Z,27.00
2023-06-27T14:04:27.030Z,26.90
2023-06-27T14:06:54.077Z,27.00
2023-06-27T14:09:21.073Z,27.20
2023-06-27T14:11:53.639Z,27.50
2023-06-27T14:14:21.098Z,27.80
2023-06-27T14:16:49.586Z,27.50
2023-06-27T14:19:18.220Z,27.60
2023-06-27T14:21:45.028Z,27.90
2023-06-27T14:24:11.797Z,27.70
2023-06-27T14:26:38.605Z,27.30
2023-06-27T14:29:06.452Z,26.90
2023-06-27T14:31:33.250Z,26.20
2023-06-27T14:34:00.824Z,26.10
2023-06-27T14:36:30.184Z,26.80
2023-06-27T14:38:57.198Z,27.80
2023-06-27T14:41:24.000Z,28.90
2023-06-27T14:43:50.759Z,29.70
2023-06-27T14:46:17.513Z,30.20
2023-06-27T14:48:45.829Z,29.80
2023-06-27T14:51:14.665Z,29.70
2023-06-27T14:53:58.029Z,30.20
2023-06-27T14:56:24.763Z,31.10
2023-06-27T14:58:52.263Z,31.40
2023-06-27T15:01:19.171Z,31.50
2023-06-27T15:03:46.135Z,31.80
2023-06-27T15:06:12.888Z,31.70
2023-06-27T15:08:39.617Z,31.80
2023-06-27T15:11:06.346Z,31.70
2023-06-27T15:13:34.371Z,32.00
2023-06-27T15:16:01.277Z,32.00
2023-06-27T15:18:28.034Z,31.40
2023-06-27T15:20:55.793Z,30.20
2023-06-27T15:23:36.788Z,30.00
2023-06-27T15:26:05.995Z,29.80
2023-06-27T15:28:32.679Z,29.40
2023-06-27T15:30:59.416Z,29.10
2023-06-27T15:33:26.158Z,29.20
2023-06-27T15:35:52.870Z,29.60
2023-06-27T15:38:19.628Z,29.70
2023-06-27T15:40:47.660Z,29.70
2023-06-27T15:43:14.481Z,29.50
2023-06-27T15:45:41.536Z,29.20
2023-06-27T15:48:08.510Z,29.10
2023-06-27T15:50:35.631Z,28.30
2023-06-27T15:53:02.482Z,28.50
2023-06-27T15:55:29.263Z,28.80
2023-06-27T15:57:55.970Z,28.90
2023-06-27T16:00:22.850Z,28.80
2023-06-27T16:02:49.790Z,28.10
2023-06-27T16:05:16.920Z,27.40
2023-06-27T16:07:43.943Z,26.60
2023-06-27T16:10:11.451Z,25.90
2023-06-27T16:12:38.391Z,25.50
2023-06-27T16:15:05.803Z,25.60
2023-06-27T16:17:32.703Z,25.50
2023-06-27T16:20:00.222Z,25.20
2023-06-27T16:22:28.127Z,25.30
2023-06-27T16:24:54.854Z,25.10
2023-06-27T16:27:21.627Z,24.80
2023-06-27T16:29:48.598Z,24.60
2023-06-27T16:32:15.358Z,24.40
2023-06-27T16:34:42.074Z,24.30
2023-06-27T16:37:09.141Z,24.40
2023-06-27T16:39:37.324Z,24.40
2023-06-27T16:42:08.321Z,24.20
2023-06-27T16:44:35.354Z,23.90
2023-06-27T16:47:02.110Z,23.70
2023-06-27T16:49:28.842Z,23.30
2023-06-27T16:51:55.756Z,23.30
2023-06-27T16:54:22.520Z,23.30
2023-06-27T16:56:49.499Z,23.30
2023-06-27T16:59:17.606Z,23.20
2023-06-27T17:01:47.634Z,23.20
2023-06-27T17:04:15.620Z,23.00
2023-06-27T17:06:42.333Z,22.90
2023-06-27T17:09:09.135Z,22.80
2023-06-27T17:11:35.905Z,22.90
2023-06-27T17:14:02.740Z,22.90
2023-06-27T17:16:29.528Z,22.80
2023-06-27T17:18:56.312Z,22.70
2023-06-27T17:21:23.098Z,22.60
2023-06-27T17:23:50.588Z,22.50
2023-06-27T17:26:17.459Z,22.40
2023-06-27T17:28:44.167Z,22.50
2023-06-27T17:31:10.953Z,22.30
2023-06-27T17:33:39.041Z,22.20
2023-06-27T17:36:06.138Z,22.00
2023-06-27T17:38:33.015Z,21.90
2023-06-27T17:41:00.621Z,21.70
2023-06-27T17:43:32.908Z,21.70
2023-06-27T17:47:24.141Z,21.80
2023-06-27T17:49:29.928Z,21.70
2023-06-27T17:52:25.906Z,21.60
2023-06-27T17:55:07.163Z,21.70
2023-06-27T17:57:59.297Z,22.70
2023-06-27T18:00:26.139Z,21.60
2023-06-27T18:03:07.071Z,20.90
2023-06-27T18:05:38.188Z,21.40
2023-06-27T18:08:16.166Z,21.50
2023-06-27T18:10:44.531Z,21.20
2023-06-27T18:13:11.832Z,21.20
2023-06-27T18:15:38.644Z,21.10
2023-06-27T18:18:06.036Z,21.00
2023-06-27T18:20:36.775Z,21.10
2023-06-27T18:23:03.749Z,21.00
2023-06-27T18:25:55.593Z,20.90
2023-06-27T18:33:39.018Z,20.60
2023-06-27T18:36:33.064Z,20.60
2023-06-27T18:39:01.168Z,20.60
2023-06-27T18:45:29.255Z,20.40
2023-06-27T18:47:56.136Z,20.30
2023-06-27T18:50:25.259Z,20.30
2023-06-27T18:52:52.646Z,20.10
2023-06-27T18:55:20.131Z,20.20
2023-06-27T18:57:48.332Z,20.30
2023-06-27T19:00:16.093Z,20.10
2023-06-27T19:02:43.133Z,20.00
2023-06-27T19:05:10.816Z,20.10
2023-06-27T19:07:37.626Z,19.70
2023-06-27T19:10:04.954Z,19.40
2023-06-27T19:12:32.243Z,19.30
2023-06-27T19:14:58.963Z,19.20
2023-06-27T19:17:25.683Z,19.10
2023-06-27T19:19:53.192Z,19.00
2023-06-27T19:22:21.131Z,18.90
2023-06-27T19:24:48.043Z,18.90
2023-06-27T19:27:15.015Z,19.10
2023-06-27T19:29:41.909Z,18.70
2023-06-27T19:32:08.836Z,18.60
2023-06-27T19:34:36.602Z,18.60
2023-06-27T19:37:03.483Z,18.50
2023-06-27T19:39:30.262Z,18.40
2023-06-27T19:41:57.028Z,18.30
2023-06-27T19:44:24.017Z,18.20
2023-06-27T19:46:50.767Z,18.00
2023-06-27T19:49:18.193Z,18.00
2023-06-27T19:51:45.237Z,17.90
2023-06-27T19:54:11.984Z,17.60
2023-06-27T19:56:42.256Z,18.00
2023-06-27T19:59:09.477Z,18.00
2023-06-27T20:01:36.376Z,18.60
2023-06-27T20:04:03.819Z,18.30
2023-06-27T20:06:30.721Z,18.00
2023-06-27T20:08:57.470Z,17.90
2023-06-27T20:11:25.352Z,17.90
2023-06-27T20:13:52.178Z,18.00
2023-06-27T20:16:18.917Z,17.70
2023-06-27T20:18:46.750Z,17.60
2023-06-27T20:21:13.669Z,17.50
2023-06-27T20:23:40.468Z,17.40
2023-06-27T20:26:07.332Z,17.30
2023-06-27T20:28:34.095Z,17.50
2023-06-27T20:31:02.396Z,17.80
2023-06-27T20:33:29.304Z,17.40
2023-06-27T20:35:56.052Z,17.40
2023-06-27T20:38:24.958Z,17.50
2023-06-27T20:40:51.642Z,17.10
2023-06-27T20:43:18.399Z,17.00
2023-06-27T20:45:45.139Z,17.20
2023-06-27T20:48:11.919Z,17.00
2023-06-27T20:50:38.684Z,17.00
2023-06-27T20:53:05.434Z,17.10
2023-06-27T20:55:32.176Z,17.20
2023-06-27T20:57:58.902Z,17.30
2023-06-27T21:00:27.318Z,17.70
2023-06-27T21:02:55.405Z,17.60
2023-06-27T21:05:22.220Z,17.60
2023-06-27T21:07:49.228Z,17.50
2023-06-27T21:10:18.670Z,17.50
2023-06-27T21:12:45.430Z,17.80
2023-06-27T21:15:18.224Z,18.10
2023-06-27T21:17:45.020Z,17.90
2023-06-27T21:20:12.267Z,17.90
2023-06-27T21:22:39.034Z,17.70
2023-06-27T21:25:06.144Z,17.80
2023-06-27T21:30:02.520Z,17.70
2023-06-27T21:32:29.209Z,18.20
2023-06-27T21:34:56.032Z,18.60
2023-06-27T21:37:22.804Z,17.90
2023-06-27T21:39:49.959Z,17.80
2023-06-27T21:42:16.729Z,17.90
2023-06-27T21:44:43.468Z,17.90
2023-06-27T21:47:10.176Z,18.00
2023-06-27T21:49:36.872Z,18.20
2023-06-27T21:52:03.870Z,18.00
2023-06-27T21:54:30.584Z,17.90
2023-06-27T21:56:57.342Z,17.90
2023-06-27T21:59:24.043Z,18.00
2023-06-27T22:01:50.758Z,18.00
2023-06-27T22:04:17.703Z,17.90
2023-06-27T22:06:44.784Z,17.90
2023-06-27T22:09:12.105Z,18.30
2023-06-27T22:11:38.909Z,17.80
2023-06-27T22:14:05.594Z,17.80
2023-06-27T22:16:32.319Z,17.80
2023-06-27T22:18:59.060Z,17.90
2023-06-27T22:21:25.822Z,17.90
2023-06-27T22:23:54.964Z,18.80
2023-06-27T22:26:22.030Z,18.10
2023-06-27T22:28:48.815Z,17.80
2023-06-27T22:31:15.707Z,17.70
2023-06-27T22:33:42.466Z,17.90
2023-06-27T22:36:09.162Z,17.90
2023-06-27T22:38:35.866Z,17.90
2023-06-27T22:41:03.064Z,17.90
2023-06-27T22:43:29.781Z,18.00
2023-06-27T22:45:56.499Z,18.00
2023-06-27T22:48:24.540Z,18.00
2023-06-27T22:50:52.143Z,17.90
2023-06-27T22:53:18.996Z,17.70
2023-06-27T22:55:45.778Z,17.60
2023-06-27T22:58:12.630Z,17.60
2023-06-27T23:00:39.938Z,17.60
2023-06-27T23:03:06.974Z,17.60
2023-06-27T23:05:33.678Z,17.70
2023-06-27T23:08:00.422Z,17.80
2023-06-27T23:10:27.217Z,17.80
2023-06-27T23:12:53.999Z,18.00
2023-06-27T23:15:20.687Z,18.70
2023-06-27T23:17:49.393Z,18.00
2023-06-27T23:20:18.279Z,18.00
2023-06-27T23:22:45.051Z,17.90
2023-06-27T23:25:12.208Z,17.90
2023-06-27T23:27:42.130Z,17.90
2023-06-27T23:30:09.593Z,17.90
2023-06-27T23:32:36.387Z,17.90
2023-06-27T23:35:03.384Z,17.80
2023-06-27T23:37:30.512Z,17.60
2023-06-27T23:39:57.934Z,17.60
2023-06-27T23:42:24.635Z,17.60
2023-06-27T23:44:51.389Z,17.70
2023-06-27T23:47:18.219Z,17.80
2023-06-27T23:49:44.950Z,18.00
2023-06-27T23:52:11.692Z,18.20
2023-06-27T23:54:38.407Z,18.00
2023-06-27T23:57:05.635Z,17.90
2023-06-27T23:59:32.370Z,17.90
